createdAt,value
2023-01-07T00:01:46.475Z,19.30
2023-01-07T00:04:17.596Z,19.20
2023-01-07T00:06:48.432Z,19.30
2023-01-07T00:09:18.234Z,19.20
2023-01-07T00:11:47.789Z,19.20
2023-01-07T00:14:17.037Z,19.30
2023-01-07T00:16:46.054Z,19.30
2023-01-07T00:19:17.349Z,19.30
2023-01-07T00:21:46.507Z,19.30
2023-01-07T00:24:18.112Z,19.30
2023-01-07T00:26:47.537Z,19.30
2023-01-07T00:29:18.018Z,19.30
2023-01-07T00:31:47.282Z,19.30
2023-01-07T00:34:16.638Z,19.40
2023-01-07T00:36:47.894Z,19.40
2023-01-07T00:39:22.449Z,19.40
2023-01-07T00:42:09.540Z,19.40
2023-01-07T00:44:38.915Z,19.40
2023-01-07T00:47:08.305Z,19.40
2023-01-07T00:49:37.740Z,19.40
2023-01-07T00:52:06.901Z,19.40
2023-01-07T00:54:35.891Z,19.40
2023-01-07T00:57:05.006Z,19.50
2023-01-07T00:59:34.026Z,19.50
2023-01-07T01:02:03.184Z,19.50
2023-01-07T01:04:32.288Z,19.50
2023-01-07T01:07:01.355Z,19.50
2023-01-07T01:09:30.477Z,19.50
2023-01-07T01:11:59.576Z,19.50
2023-01-07T01:14:28.562Z,19.50
2023-01-07T01:16:57.610Z,19.50
2023-01-07T01:19:26.640Z,19.60
2023-01-07T01:21:57.211Z,19.60
2023-01-07T01:24:26.197Z,19.70
2023-01-07T01:26:55.212Z,19.70
2023-01-07T01:29:24.612Z,19.70
2023-01-07T01:31:53.808Z,19.80
2023-01-07T01:34:23.033Z,19.90
2023-01-07T01:36:52.281Z,19.90
2023-01-07T01:39:21.842Z,20.00
2023-01-07T01:41:51.047Z,20.00
2023-01-07T01:44:50.036Z,20.00
2023-01-07T01:47:50.937Z,20.10
2023-01-07T01:50:49.148Z,20.20
2023-01-07T01:53:20.555Z,20.30
2023-01-07T01:55:53.325Z,20.30
2023-01-07T01:58:29.253Z,20.40
2023-01-07T02:00:58.378Z,20.40
2023-01-07T02:03:30.609Z,20.50
2023-01-07T02:05:59.756Z,20.50
2023-01-07T02:08:28.925Z,20.60
2023-01-07T02:11:29.247Z,20.70
2023-01-07T02:14:16.398Z,20.70
2023-01-07T02:17:23.057Z,20.80
2023-01-07T02:20:27.398Z,20.90
2023-01-07T02:23:16.416Z,21.00
2023-01-07T02:26:34.921Z,21.10
2023-01-07T02:29:25.173Z,21.10
2023-01-07T02:32:06.679Z,21.20
2023-01-07T02:34:50.596Z,21.30
2023-01-07T02:37:43.739Z,21.50
2023-01-07T02:40:28.861Z,21.60
2023-01-07T02:43:22.288Z,21.70
2023-01-07T02:46:07.651Z,21.90
2023-01-07T02:48:37.995Z,22.00
2023-01-07T02:51:07.133Z,22.10
2023-01-07T02:53:36.786Z,22.10
2023-01-07T02:56:20.776Z,22.10
2023-01-07T02:58:58.833Z,22.20
2023-01-07T03:01:48.370Z,22.20
2023-01-07T03:04:35.960Z,22.40
2023-01-07T03:07:22.311Z,22.40
2023-01-07T03:09:57.949Z,22.50
2023-01-07T03:13:12.404Z,22.50
2023-01-07T03:15:52.490Z,22.60
2023-01-07T03:18:28.859Z,22.70
2023-01-07T03:21:05.840Z,22.80
2023-01-07T03:23:40.738Z,22.80
2023-01-07T03:26:11.790Z,22.90
2023-01-07T03:28:42.815Z,23.00
2023-01-07T03:31:16.128Z,23.10
2023-01-07T03:34:00.840Z,23.00
2023-01-07T03:36:35.891Z,23.00
2023-01-07T03:39:06.462Z,23.00
2023-01-07T03:41:53.694Z,23.00
2023-01-07T03:44:22.684Z,23.00
2023-01-07T03:46:53.125Z,23.10
2023-01-07T03:49:22.168Z,23.20
2023-01-07T03:51:51.162Z,23.30
2023-01-07T03:54:20.249Z,23.40
2023-01-07T03:56:49.312Z,23.50
2023-01-07T03:59:18.264Z,23.60
2023-01-07T04:01:47.658Z,23.70
2023-01-07T04:04:16.859Z,23.90
2023-01-07T04:06:45.912Z,24.00
2023-01-07T04:09:22.993Z,24.10
2023-01-07T04:11:52.066Z,24.10
2023-01-07T04:14:21.119Z,24.10
2023-01-07T04:16:52.316Z,24.20
2023-01-07T04:19:21.577Z,24.30
2023-01-07T04:21:50.576Z,24.40
2023-01-07T04:24:19.699Z,24.60
2023-01-07T04:26:48.678Z,24.70
2023-01-07T04:29:20.040Z,24.90
2023-01-07T04:31:50.286Z,25.00
2023-01-07T04:34:19.400Z,25.10
2023-01-07T04:36:48.462Z,25.30
2023-01-07T04:39:18.939Z,25.40
2023-01-07T04:41:47.924Z,25.30
2023-01-07T04:44:18.673Z,25.30
2023-01-07T04:46:47.684Z,25.30
2023-01-07T04:49:16.634Z,25.30
2023-01-07T04:51:45.780Z,25.30
2023-01-07T04:54:15.067Z,25.40
2023-01-07T04:56:44.486Z,25.40
2023-01-07T04:59:13.447Z,25.50
2023-01-07T05:01:42.626Z,25.50
2023-01-07T05:04:11.890Z,25.50
2023-01-07T05:06:40.964Z,25.30
2023-01-07T05:09:10.056Z,25.10
2023-01-07T05:11:39.018Z,25.10
2023-01-07T05:14:07.972Z,25.10
2023-01-07T05:16:37.038Z,25.10
2023-01-07T05:19:06.136Z,25.10
2023-01-07T05:21:35.141Z,25.10
2023-01-07T05:24:04.296Z,25.30
2023-01-07T05:26:33.249Z,25.30
2023-01-07T05:29:02.498Z,25.40
2023-01-07T05:31:31.494Z,25.50
2023-01-07T05:34:00.533Z,25.50
2023-01-07T05:36:29.714Z,25.50
2023-01-07T05:38:58.792Z,25.60
2023-01-07T05:41:27.919Z,25.70
2023-01-07T05:43:57.134Z,25.80
2023-01-07T05:46:26.590Z,25.80
2023-01-07T05:48:55.589Z,25.90
2023-01-07T05:51:24.661Z,25.90
2023-01-07T05:53:53.796Z,26.00
2023-01-07T05:56:23.121Z,26.10
2023-01-07T05:58:52.173Z,26.20
2023-01-07T06:01:22.133Z,26.20
2023-01-07T06:03:51.200Z,26.10
2023-01-07T06:06:20.380Z,26.00
2023-01-07T06:08:49.472Z,26.10
2023-01-07T06:11:18.536Z,26.20
2023-01-07T06:13:47.568Z,26.30
2023-01-07T06:16:17.130Z,26.40
2023-01-07T06:18:46.186Z,26.40
2023-01-07T06:21:17.255Z,26.50
2023-01-07T06:23:46.633Z,26.60
2023-01-07T06:26:15.918Z,26.60
2023-01-07T06:28:44.915Z,26.60
2023-01-07T06:31:14.172Z,26.70
2023-01-07T06:33:43.143Z,26.70
2023-01-07T06:36:12.238Z,26.80
2023-01-07T06:38:42.723Z,26.90
2023-01-07T06:41:11.761Z,26.90
2023-01-07T06:43:40.782Z,27.00
2023-01-07T06:46:09.837Z,27.00
2023-01-07T06:48:38.890Z,27.00
2023-01-07T06:51:07.937Z,27.00
2023-01-07T06:53:37.013Z,27.00
2023-01-07T06:56:06.234Z,26.90
2023-01-07T06:58:35.337Z,26.80
2023-01-07T07:01:08.786Z,26.80
2023-01-07T07:03:37.897Z,26.80
2023-01-07T07:06:07.503Z,26.90
2023-01-07T07:08:36.558Z,26.90
2023-01-07T07:11:05.535Z,27.10
2023-01-07T07:13:34.476Z,27.20
2023-01-07T07:16:03.689Z,27.50
2023-01-07T07:18:33.826Z,27.60
2023-01-07T07:21:03.099Z,27.80
2023-01-07T07:23:32.055Z,28.00
2023-01-07T07:26:00.982Z,28.20
2023-01-07T07:28:29.929Z,28.40
2023-01-07T07:30:59.047Z,28.50
2023-01-07T07:33:28.009Z,28.60
2023-01-07T07:35:57.345Z,28.70
2023-01-07T07:38:26.372Z,28.80
2023-01-07T07:40:55.758Z,28.80
2023-01-07T07:43:24.871Z,28.60
2023-01-07T07:45:53.851Z,28.40
2023-01-07T07:48:22.814Z,28.30
2023-01-07T07:50:54.721Z,28.20
2023-01-07T07:53:23.802Z,28.30
2023-01-07T07:55:54.382Z,28.30
2023-01-07T07:58:23.637Z,28.40
2023-01-07T08:00:52.760Z,28.40
2023-01-07T08:03:21.918Z,28.30
2023-01-07T08:05:50.929Z,28.30
2023-01-07T08:08:19.984Z,28.30
2023-01-07T08:10:48.977Z,28.40
2023-01-07T08:13:17.987Z,28.40
2023-01-07T08:15:46.976Z,28.50
2023-01-07T08:18:16.052Z,28.60
2023-01-07T08:20:45.010Z,28.60
2023-01-07T08:23:14.027Z,28.60
2023-01-07T08:25:43.609Z,28.40
2023-01-07T08:28:13.017Z,28.30
2023-01-07T08:30:43.889Z,28.30
2023-01-07T08:33:13.196Z,28.20
2023-01-07T08:35:42.209Z,28.20
2023-01-07T08:38:11.577Z,28.30
2023-01-07T08:40:40.729Z,28.40
2023-01-07T08:43:13.483Z,28.50
2023-01-07T08:45:44.232Z,28.60
2023-01-07T08:48:13.244Z,28.70
2023-01-07T08:50:42.265Z,28.80
2023-01-07T08:53:11.317Z,28.80
2023-01-07T08:55:40.294Z,28.90
2023-01-07T08:58:09.323Z,28.90
2023-01-07T09:00:38.353Z,28.90
2023-01-07T09:03:07.629Z,28.90
2023-01-07T09:05:37.190Z,28.80
2023-01-07T09:08:06.471Z,28.80
2023-01-07T09:10:35.583Z,28.70
2023-01-07T09:13:04.606Z,28.50
2023-01-07T09:15:33.685Z,28.40
2023-01-07T09:18:04.718Z,28.40
2023-01-07T09:20:33.889Z,28.30
2023-01-07T09:23:02.896Z,28.30
2023-01-07T09:25:31.872Z,28.20
2023-01-07T09:28:00.850Z,28.20
2023-01-07T09:30:30.066Z,28.20
2023-01-07T09:32:59.127Z,28.10
2023-01-07T09:35:28.196Z,28.00
2023-01-07T09:37:57.268Z,27.90
2023-01-07T09:40:37.904Z,27.80
2023-01-07T09:43:12.307Z,27.70
2023-01-07T09:45:51.246Z,27.70
2023-01-07T09:48:37.695Z,27.60
2023-01-07T09:51:33.886Z,27.50
2023-01-07T09:54:06.578Z,27.50
2023-01-07T09:56:37.645Z,27.40
2023-01-07T09:59:07.668Z,27.40
2023-01-07T10:01:48.500Z,27.30
2023-01-07T10:04:39.784Z,27.20
2023-01-07T10:07:17.141Z,27.10
2023-01-07T10:10:04.253Z,27.00
2023-01-07T10:12:41.987Z,26.90
2023-01-07T10:15:55.236Z,26.90
2023-01-07T10:18:27.387Z,26.80
2023-01-07T10:21:16.362Z,26.70
2023-01-07T10:23:49.564Z,26.60
2023-01-07T10:26:31.865Z,26.60
2023-01-07T10:29:20.927Z,26.60
2023-01-07T10:31:53.006Z,26.50
2023-01-07T10:34:28.280Z,26.50
2023-01-07T10:37:05.680Z,26.50
2023-01-07T10:40:13.038Z,26.40
2023-01-07T10:42:54.948Z,26.30
2023-01-07T10:45:33.446Z,26.30
2023-01-07T10:48:19.363Z,26.20
2023-01-07T10:51:09.403Z,26.10
2023-01-07T10:54:00.108Z,26.10
2023-01-07T10:56:38.300Z,26.00
2023-01-07T10:59:09.919Z,25.90
2023-01-07T11:01:41.571Z,25.90
2023-01-07T11:04:16.157Z,25.90
2023-01-07T11:07:06.176Z,25.80
2023-01-07T11:09:37.470Z,25.70
2023-01-07T11:12:17.947Z,25.70
2023-01-07T11:14:48.234Z,25.60
2023-01-07T11:17:51.749Z,25.60
2023-01-07T11:20:47.210Z,25.50
2023-01-07T11:23:38.909Z,25.40
2023-01-07T11:26:07.879Z,25.40
2023-01-07T11:28:38.055Z,25.30
2023-01-07T11:31:07.528Z,25.30
2023-01-07T11:34:03.175Z,25.20
2023-01-07T11:36:44.954Z,25.20
2023-01-07T11:39:24.466Z,25.10
2023-01-07T11:41:56.475Z,25.00
2023-01-07T11:44:25.961Z,25.00
2023-01-07T11:46:56.256Z,25.00
2023-01-07T11:49:31.350Z,24.90
2023-01-07T11:52:00.829Z,24.80
2023-01-07T11:54:33.997Z,24.80
2023-01-07T11:57:24.307Z,24.70
2023-01-07T12:00:18.413Z,24.70
2023-01-07T12:02:57.582Z,24.70
2023-01-07T12:05:28.804Z,24.60
2023-01-07T12:08:00.126Z,24.60
2023-01-07T12:10:35.807Z,24.60
2023-01-07T12:13:08.557Z,24.50
2023-01-07T12:15:47.871Z,24.50
2023-01-07T12:18:41.314Z,24.50
2023-01-07T12:21:33.850Z,24.50
2023-01-07T12:24:24.809Z,24.50
2023-01-07T12:27:24.474Z,24.50
2023-01-07T12:29:56.267Z,24.40
2023-01-07T12:33:00.651Z,24.40
2023-01-07T12:35:39.929Z,24.40
2023-01-07T12:38:19.004Z,24.40
2023-01-07T12:40:50.705Z,24.40
2023-01-07T12:43:35.275Z,24.40
2023-01-07T12:46:13.623Z,24.40
2023-01-07T12:49:08.959Z,24.40
2023-01-07T12:52:09.159Z,24.40
2023-01-07T12:55:03.127Z,24.40
2023-01-07T12:57:40.512Z,24.40
2023-01-07T13:00:22.332Z,24.50
2023-01-07T13:02:58.318Z,24.50
2023-01-07T13:05:43.554Z,24.50
2023-01-07T13:08:36.749Z,24.50
2023-01-07T13:11:45.552Z,24.50
2023-01-07T13:14:39.509Z,24.50
2023-01-07T13:17:22.864Z,24.50
2023-01-07T13:19:53.697Z,24.50
2023-01-07T13:22:51.901Z,24.50
2023-01-07T13:25:34.104Z,24.40
2023-01-07T13:28:45.666Z,24.50
2023-01-07T13:31:20.695Z,24.40
2023-01-07T13:34:26.265Z,24.30
2023-01-07T13:37:06.994Z,24.30
2023-01-07T13:39:50.152Z,24.30
2023-01-07T13:42:46.461Z,24.20
2023-01-07T13:45:24.567Z,24.20
2023-01-07T13:47:56.894Z,24.10
2023-01-07T13:50:38.636Z,24.10
2023-01-07T13:53:09.233Z,24.10
2023-01-07T13:55:41.136Z,24.00
2023-01-07T13:58:46.204Z,24.00
2023-01-07T14:01:17.666Z,24.00
2023-01-07T14:03:59.534Z,23.90
2023-01-07T14:06:54.132Z,23.90
2023-01-07T14:09:27.184Z,23.90
2023-01-07T14:12:07.239Z,23.80
2023-01-07T14:14:44.727Z,23.80
2023-01-07T14:17:44.923Z,23.80
2023-01-07T14:20:58.545Z,23.80
2023-01-07T14:23:52.910Z,23.70
2023-01-07T14:26:45.057Z,23.70
2023-01-07T14:29:26.841Z,23.70
2023-01-07T14:32:30.043Z,23.60
2023-01-07T14:35:02.979Z,23.60
2023-01-07T14:37:34.874Z,23.50
2023-01-07T14:40:24.691Z,23.50
2023-01-07T14:42:54.367Z,23.50
2023-01-07T14:45:39.377Z,23.50
2023-01-07T14:48:13.830Z,23.50
2023-01-07T14:50:53.649Z,23.40
2023-01-07T14:53:46.951Z,23.40
2023-01-07T14:56:22.179Z,23.40
2023-01-07T14:59:09.679Z,23.40
2023-01-07T15:02:15.442Z,23.30
2023-01-07T15:04:59.548Z,23.30
2023-01-07T15:07:33.990Z,23.30
2023-01-07T15:10:34.147Z,23.30
2023-01-07T15:13:24.391Z,23.30
2023-01-07T15:16:02.469Z,23.30
2023-01-07T15:18:51.720Z,23.30
2023-01-07T15:21:57.099Z,23.20
2023-01-07T15:24:49.263Z,23.20
2023-01-07T15:27:38.989Z,23.20
2023-01-07T15:30:37.713Z,23.20
2023-01-07T15:33:37.231Z,23.10
2023-01-07T15:36:10.338Z,23.10
2023-01-07T15:38:53.873Z,23.10
2023-01-07T15:41:39.441Z,23.10
2023-01-07T15:44:27.844Z,23.10
2023-01-07T15:46:58.255Z,23.00
2023-01-07T15:49:30.966Z,23.00
2023-01-07T15:52:02.625Z,23.00
2023-01-07T15:54:32.049Z,22.90
2023-01-07T15:57:27.778Z,23.00
2023-01-07T15:59:58.348Z,22.90
2023-01-07T16:02:39.142Z,22.90
2023-01-07T16:05:08.810Z,22.90
2023-01-07T16:08:02.563Z,22.80
2023-01-07T16:10:34.758Z,22.80
2023-01-07T16:13:17.453Z,22.80
2023-01-07T16:15:46.829Z,22.80
2023-01-07T16:18:16.292Z,22.80
2023-01-07T16:21:00.667Z,22.70
2023-01-07T16:23:31.614Z,22.70
2023-01-07T16:26:22.471Z,22.70
2023-01-07T16:28:58.968Z,22.70
2023-01-07T16:31:30.601Z,22.70
2023-01-07T16:34:01.228Z,22.60
2023-01-07T16:36:37.797Z,22.60
2023-01-07T16:39:19.451Z,22.60
2023-01-07T16:41:48.742Z,22.50
2023-01-07T16:44:49.726Z,22.60
2023-01-07T16:47:30.114Z,22.50
2023-01-07T16:50:15.603Z,22.50
2023-01-07T16:52:53.287Z,22.50
2023-01-07T16:55:47.865Z,22.40
2023-01-07T16:58:42.869Z,22.40
2023-01-07T17:01:13.007Z,22.30
2023-01-07T17:04:01.181Z,22.30
2023-01-07T17:06:41.508Z,22.30
2023-01-07T17:09:37.565Z,22.30
2023-01-07T17:12:07.182Z,22.30
2023-01-07T17:14:49.835Z,22.30
2023-01-07T17:17:36.292Z,22.20
2023-01-07T17:20:31.384Z,22.20
2023-01-07T17:23:00.396Z,22.20
2023-01-07T17:25:30.254Z,22.20
2023-01-07T17:28:07.771Z,22.20
2023-01-07T17:30:38.458Z,22.20
2023-01-07T17:33:07.484Z,22.10
2023-01-07T17:35:46.498Z,22.10
2023-01-07T17:38:17.196Z,22.20
2023-01-07T17:40:47.102Z,22.10
2023-01-07T17:43:40.179Z,22.10
2023-01-07T17:46:13.450Z,22.10
2023-01-07T17:48:42.532Z,22.10
2023-01-07T17:51:13.063Z,22.10
2023-01-07T17:53:46.542Z,22.10
2023-01-07T17:56:15.822Z,22.10
2023-01-07T17:58:47.953Z,22.10
2023-01-07T18:01:24.309Z,22.10
2023-01-07T18:03:54.297Z,22.10
2023-01-07T18:06:25.727Z,22.10
2023-01-07T18:08:55.230Z,22.10
2023-01-07T18:11:46.318Z,22.10
2023-01-07T18:14:16.638Z,22.10
2023-01-07T18:16:45.730Z,22.10
2023-01-07T18:19:16.277Z,22.10
2023-01-07T18:21:45.254Z,22.00
2023-01-07T18:24:22.506Z,22.00
2023-01-07T18:26:51.827Z,22.00
2023-01-07T18:29:20.787Z,22.00
2023-01-07T18:31:49.783Z,21.90
2023-01-07T18:34:18.857Z,21.90
2023-01-07T18:36:48.080Z,21.90
2023-01-07T18:39:19.695Z,21.90
2023-01-07T18:41:51.993Z,21.90
2023-01-07T18:44:22.757Z,21.80
2023-01-07T18:46:52.034Z,21.90
2023-01-07T18:49:21.017Z,21.80
2023-01-07T18:51:50.528Z,21.80
2023-01-07T18:54:19.610Z,21.80
2023-01-07T18:56:48.995Z,21.70
2023-01-07T18:59:19.110Z,21.70
2023-01-07T19:01:48.255Z,21.70
2023-01-07T19:04:17.523Z,21.70
2023-01-07T19:06:46.569Z,21.70
2023-01-07T19:09:15.533Z,21.70
2023-01-07T19:11:44.524Z,21.70
2023-01-07T19:14:13.569Z,21.60
2023-01-07T19:16:42.675Z,21.60
2023-01-07T19:19:11.769Z,21.60
2023-01-07T19:21:40.778Z,21.60
2023-01-07T19:24:09.834Z,21.60
2023-01-07T19:26:38.865Z,21.60
2023-01-07T19:29:07.979Z,21.50
2023-01-07T19:31:37.528Z,21.50
2023-01-07T19:34:06.898Z,21.50
2023-01-07T19:36:36.191Z,21.50
2023-01-07T19:39:05.541Z,21.50
2023-01-07T19:41:35.246Z,21.50
2023-01-07T19:44:04.395Z,21.50
2023-01-07T19:46:35.912Z,21.50
2023-01-07T19:49:08.783Z,21.50
2023-01-07T19:51:39.575Z,21.50
2023-01-07T19:54:09.739Z,21.50
2023-01-07T19:56:40.714Z,21.50
2023-01-07T19:59:09.958Z,21.40
2023-01-07T20:01:39.968Z,21.40
2023-01-07T20:04:10.164Z,21.40
2023-01-07T20:06:42.784Z,21.40
2023-01-07T20:09:12.432Z,21.40
2023-01-07T20:11:43.569Z,21.40
2023-01-07T20:14:13.991Z,21.30
2023-01-07T20:16:43.525Z,21.30
2023-01-07T20:19:13.730Z,21.30
2023-01-07T20:21:43.330Z,21.30
2023-01-07T20:24:14.656Z,21.30
2023-01-07T20:26:43.601Z,21.30
2023-01-07T20:29:12.636Z,21.20
2023-01-07T20:31:41.800Z,21.20
2023-01-07T20:34:11.241Z,21.20
2023-01-07T20:36:40.253Z,21.20
2023-01-07T20:39:09.251Z,21.20
2023-01-07T20:41:39.763Z,21.20
2023-01-07T20:44:09.999Z,21.10
2023-01-07T20:46:40.398Z,21.10
2023-01-07T20:49:09.921Z,21.10
2023-01-07T20:51:39.708Z,21.10
2023-01-07T20:54:09.003Z,21.10
2023-01-07T20:56:38.097Z,21.10
2023-01-07T20:59:07.105Z,21.10
2023-01-07T21:01:36.471Z,21.10
2023-01-07T21:04:05.712Z,21.10
2023-01-07T21:06:34.744Z,21.00
2023-01-07T21:09:03.784Z,21.00
2023-01-07T21:11:33.813Z,21.00
2023-01-07T21:14:02.983Z,21.00
2023-01-07T21:16:32.118Z,21.00
2023-01-07T21:19:01.135Z,21.00
2023-01-07T21:21:30.112Z,21.00
2023-01-07T21:23:59.216Z,21.00
2023-01-07T21:26:28.183Z,21.00
2023-01-07T21:28:57.595Z,21.00
2023-01-07T21:31:27.634Z,21.00
2023-01-07T21:33:58.428Z,20.90
2023-01-07T21:36:29.091Z,20.90
2023-01-07T21:39:00.290Z,20.90
2023-01-07T21:41:30.074Z,20.90
2023-01-07T21:43:59.135Z,20.90
2023-01-07T21:46:28.494Z,20.90
2023-01-07T21:48:57.882Z,20.80
2023-01-07T21:51:30.222Z,20.80
2023-01-07T21:53:59.992Z,20.80
2023-01-07T21:56:33.363Z,20.80
2023-01-07T21:59:02.713Z,20.90
2023-01-07T22:01:31.977Z,20.80
2023-01-07T22:04:01.619Z,20.80
2023-01-07T22:06:36.191Z,20.80
2023-01-07T22:09:08.475Z,20.80
2023-01-07T22:11:40.094Z,20.80
2023-01-07T22:14:14.158Z,20.80
2023-01-07T22:16:43.712Z,20.80
2023-01-07T22:19:15.680Z,20.80
2023-01-07T22:21:44.741Z,20.80
2023-01-07T22:24:15.554Z,20.80
2023-01-07T22:26:44.750Z,20.80
2023-01-07T22:29:14.125Z,20.80
2023-01-07T22:31:43.376Z,20.80
2023-01-07T22:34:12.427Z,20.80
2023-01-07T22:36:53.102Z,20.80
2023-01-07T22:39:31.836Z,20.80
2023-01-07T22:42:07.052Z,20.80
2023-01-07T22:44:42.239Z,20.80
2023-01-07T22:47:17.855Z,20.80
2023-01-07T22:49:47.650Z,20.80
2023-01-07T22:52:16.710Z,20.80
2023-01-07T22:54:45.895Z,20.80
2023-01-07T22:57:15.475Z,20.80
2023-01-07T22:59:47.018Z,20.80
2023-01-07T23:02:16.217Z,20.80
2023-01-07T23:04:45.209Z,20.80
2023-01-07T23:07:14.167Z,20.80
2023-01-07T23:09:43.169Z,20.80
2023-01-07T23:12:14.461Z,20.80
2023-01-07T23:14:43.502Z,20.80
2023-01-07T23:17:12.474Z,20.80
2023-01-07T23:19:41.502Z,20.80
2023-01-07T23:22:10.434Z,20.80
2023-01-07T23:24:39.471Z,20.80
2023-01-07T23:27:08.501Z,20.80
2023-01-07T23:29:37.479Z,20.80
2023-01-07T23:32:06.888Z,20.80
2023-01-07T23:34:36.416Z,20.80
2023-01-07T23:37:05.990Z,20.70
2023-01-07T23:39:34.957Z,20.80
2023-01-07T23:42:04.930Z,20.70
2023-01-07T23:44:34.011Z,20.70
2023-01-07T23:47:03.031Z,20.70
2023-01-07T23:49:33.103Z,20.70
2023-01-07T23:52:02.066Z,20.70
2023-01-07T23:54:31.204Z,20.70
2023-01-07T23:57:00.294Z,20.70
2023-01-07T23:59:29.295Z,20.70
